createdAt,value
2016-11-24T00:00:33.786Z,57.8
2016-11-24T00:01:33.765Z,58.09
2016-11-24T00:02:33.750Z,58.28
2016-11-24T00:03:33.732Z,57.7
2016-11-24T00:04:33.717Z,58.18
2016-11-24T00:05:33.702Z,57.99
2016-11-24T00:06:33.677Z,57.9
2016-11-24T00:07:33.660Z,57.9
2016-11-24T00:08:33.656Z,57.97
2016-11-24T00:09:33.633Z,57.8
2016-11-24T00:10:33.610Z,57.8
2016-11-24T00:11:33.602Z,58.09
2016-11-24T00:12:33.583Z,57.8
2016-11-24T00:13:33.571Z,57.9
2016-11-24T00:14:33.549Z,57.77
2016-11-24T00:15:33.534Z,58.09
2016-11-24T00:16:33.514Z,58.09
2016-11-24T00:17:33.497Z,58.18
2016-11-24T00:18:33.486Z,58.18
2016-11-24T00:19:33.479Z,57.99
2016-11-24T00:20:33.136Z,57.99
2016-11-24T00:21:33.437Z,58.28
2016-11-24T00:22:33.423Z,57.99
2016-11-24T00:23:33.398Z,57.99
2016-11-24T00:24:33.071Z,57.99
2016-11-24T00:25:33.367Z,57.9
2016-11-24T00:26:33.355Z,58.28
2016-11-24T00:27:33.337Z,58.47
2016-11-24T00:28:33.002Z,58.76
2016-11-24T00:29:33.305Z,58.57
2016-11-24T00:30:33.322Z,58.64
2016-11-24T00:31:33.269Z,58.67
2016-11-24T00:32:33.245Z,58.64
2016-11-24T00:33:33.240Z,58.54
2016-11-24T00:34:33.223Z,58.64
2016-11-24T00:35:33.208Z,58.64
2016-11-24T00:36:33.186Z,58.45
2016-11-24T00:37:33.173Z,58.45
2016-11-24T00:38:33.154Z,58.15
2016-11-24T00:39:33.139Z,58.18
2016-11-24T00:40:33.123Z,58.25
2016-11-24T00:41:33.113Z,58.54
2016-11-24T00:42:33.093Z,58.45
2016-11-24T00:43:33.070Z,58.45
2016-11-24T00:44:33.050Z,58.45
2016-11-24T00:45:33.037Z,58.54
2016-11-24T00:46:32.704Z,58.35
2016-11-24T00:47:33.004Z,58.35
2016-11-24T00:48:32.981Z,58.45
2016-11-24T00:49:32.968Z,58.35
2016-11-24T00:50:32.951Z,58.45
2016-11-24T00:51:32.941Z,58.45
2016-11-24T00:52:32.608Z,58.25
2016-11-24T00:53:32.905Z,58.45
2016-11-24T00:54:32.892Z,58.35
2016-11-24T00:55:32.552Z,58.35
2016-11-24T00:56:32.539Z,58.15
2016-11-24T00:57:32.554Z,58.35
2016-11-24T00:58:32.823Z,58.25
2016-11-24T00:59:32.802Z,58.35
2016-11-24T01:00:32.790Z,58.25
2016-11-24T01:01:32.771Z,58.25
2016-11-24T01:02:32.440Z,58.35
2016-11-24T01:03:32.737Z,58.35
2016-11-24T01:04:32.721Z,58.25
2016-11-24T01:05:32.701Z,58.25
2016-11-24T01:06:32.689Z,58.25
2016-11-24T01:07:32.669Z,58.15
2016-11-24T01:08:32.655Z,58.15
2016-11-24T01:09:32.641Z,58.54
2016-11-24T01:10:32.620Z,58.54
2016-11-24T01:11:32.291Z,58.25
2016-11-24T01:12:32.585Z,58.15
2016-11-24T01:13:32.571Z,58.15
2016-11-24T01:14:32.552Z,58.54
2016-11-24T01:15:32.548Z,58.15
2016-11-24T01:16:32.204Z,58.35
2016-11-24T01:17:32.504Z,58.64
2016-11-24T01:18:32.491Z,58.64
2016-11-24T01:19:32.470Z,58.73
2016-11-24T01:20:32.462Z,58.54
2016-11-24T01:21:32.129Z,58.54
2016-11-24T01:22:32.425Z,58.73
2016-11-24T01:23:32.407Z,58.54
2016-11-24T01:24:32.388Z,58.64
2016-11-24T01:25:32.372Z,58.54
2016-11-24T01:26:32.355Z,58.73
2016-11-24T01:27:32.030Z,58.54
2016-11-24T01:28:32.319Z,58.54
2016-11-24T01:29:32.314Z,58.73
2016-11-24T01:30:32.284Z,58.54
2016-11-24T01:31:32.280Z,58.64
2016-11-24T01:32:32.256Z,58.73
2016-11-24T01:33:32.235Z,58.64
2016-11-24T01:34:32.222Z,58.64
2016-11-24T01:35:32.204Z,58.54
2016-11-24T01:36:32.195Z,58.25
2016-11-24T01:37:32.180Z,58.64
2016-11-24T01:38:32.153Z,58.64
2016-11-24T01:39:31.824Z,58.64
2016-11-24T01:40:32.123Z,58.45
2016-11-24T01:41:32.101Z,58.73
2016-11-24T01:42:32.090Z,58.45
2016-11-24T01:43:32.073Z,58.73
2016-11-24T01:44:31.742Z,58.73
2016-11-24T01:45:32.043Z,58.45
2016-11-24T01:46:32.021Z,58.73
2016-11-24T01:47:32.012Z,58.64
2016-11-24T01:48:31.987Z,58.54
2016-11-24T01:49:31.660Z,58.73
2016-11-24T01:50:31.955Z,58.64
2016-11-24T01:51:31.941Z,58.73
2016-11-24T01:52:31.923Z,58.64
2016-11-24T01:53:31.905Z,58.54
2016-11-24T01:54:31.892Z,58.73
2016-11-24T01:55:31.870Z,58.73
2016-11-24T01:56:31.851Z,58.73
2016-11-24T01:57:31.840Z,58.64
2016-11-24T01:58:31.507Z,58.73
2016-11-24T01:59:31.802Z,58.54
2016-11-24T02:00:31.788Z,58.45
2016-11-24T02:01:31.775Z,58.73
2016-11-24T02:02:31.758Z,58.92
2016-11-24T02:03:31.737Z,58.64
2016-11-24T02:04:31.401Z,58.73
2016-11-24T02:05:31.387Z,58.73
2016-11-24T02:06:31.689Z,58.64
2016-11-24T02:07:31.675Z,58.64
2016-11-24T02:08:31.657Z,58.45
2016-11-24T02:09:31.634Z,58.92
2016-11-24T02:10:31.623Z,58.73
2016-11-24T02:11:31.607Z,58.92
2016-11-24T02:12:31.584Z,58.54
2016-11-24T02:13:31.571Z,59.02
2016-11-24T02:14:31.237Z,58.64
2016-11-24T02:15:31.538Z,58.92
2016-11-24T02:16:31.523Z,58.83
2016-11-24T02:17:31.190Z,58.64
2016-11-24T02:18:31.487Z,59.22
2016-11-24T02:19:31.474Z,58.73
2016-11-24T02:20:31.144Z,58.73
2016-11-24T02:21:31.439Z,58.64
2016-11-24T02:22:31.108Z,58.92
2016-11-24T02:23:31.405Z,58.73
2016-11-24T02:24:31.387Z,59.12
2016-11-24T02:25:31.374Z,59.02
2016-11-24T02:26:31.355Z,58.92
2016-11-24T02:27:31.024Z,58.64
2016-11-24T02:28:31.325Z,58.64
2016-11-24T02:29:30.994Z,58.64
2016-11-24T02:30:31.290Z,58.73
2016-11-24T02:31:31.267Z,58.64
2016-11-24T02:32:31.252Z,58.73
2016-11-24T02:33:31.240Z,58.92
2016-11-24T02:34:30.907Z,59.41
2016-11-24T02:35:30.889Z,58.73
2016-11-24T02:36:31.187Z,58.73
2016-11-24T02:37:31.178Z,59.02
2016-11-24T02:38:30.845Z,59.22
2016-11-24T02:39:31.136Z,58.64
2016-11-24T02:40:31.127Z,58.64
2016-11-24T02:41:31.108Z,58.64
2016-11-24T02:42:31.088Z,58.64
2016-11-24T02:43:31.069Z,58.73
2016-11-24T02:44:31.060Z,58.73
2016-11-24T02:45:31.060Z,58.73
2016-11-24T02:46:30.707Z,59.02
2016-11-24T02:47:31.004Z,58.73
2016-11-24T02:48:30.996Z,58.92
2016-11-24T02:49:30.967Z,58.73
2016-11-24T02:50:30.957Z,59.02
2016-11-24T02:51:30.625Z,59.02
2016-11-24T02:52:30.922Z,58.83
2016-11-24T02:53:30.905Z,58.73
2016-11-24T02:54:30.892Z,58.73
2016-11-24T02:55:30.873Z,58.54
2016-11-24T02:56:30.853Z,58.64
2016-11-24T02:57:30.846Z,58.73
2016-11-24T02:58:30.821Z,58.64
2016-11-24T02:59:30.490Z,58.64
2016-11-24T03:00:30.788Z,59.02
2016-11-24T03:01:30.765Z,58.54
2016-11-24T03:02:30.758Z,58.64
2016-11-24T03:03:30.739Z,58.73
2016-11-24T03:04:30.718Z,58.83
2016-11-24T03:05:30.702Z,58.83
2016-11-24T03:06:30.685Z,58.92
2016-11-24T03:07:30.667Z,58.73
2016-11-24T03:08:30.657Z,58.92
2016-11-24T03:09:30.634Z,58.73
2016-11-24T03:10:30.619Z,59.6
2016-11-24T03:11:30.607Z,59.12
2016-11-24T03:12:30.273Z,59.12
2016-11-24T03:13:30.577Z,58.92
2016-11-24T03:14:30.557Z,59.22
2016-11-24T03:15:30.532Z,59.02
2016-11-24T03:16:30.519Z,59.22
2016-11-24T03:17:30.504Z,58.83
2016-11-24T03:18:30.495Z,59.02
2016-11-24T03:19:30.497Z,59.22
2016-11-24T03:20:30.450Z,59.22
2016-11-24T03:21:30.441Z,58.92
2016-11-24T03:22:30.416Z,59.02
2016-11-24T03:23:30.412Z,59.22
2016-11-24T03:24:30.071Z,58.73
2016-11-24T03:25:30.370Z,58.73
2016-11-24T03:26:30.037Z,59.22
2016-11-24T03:27:30.338Z,59.6
2016-11-24T03:28:30.003Z,58.73
2016-11-24T03:29:30.301Z,59.02
2016-11-24T03:30:30.282Z,58.92
2016-11-24T03:31:30.269Z,58.73
2016-11-24T03:32:30.256Z,58.83
2016-11-24T03:33:30.233Z,58.92
2016-11-24T03:34:30.221Z,58.83
2016-11-24T03:35:30.201Z,58.73
2016-11-24T03:36:30.189Z,58.73
2016-11-24T03:37:30.168Z,58.92
2016-11-24T03:38:30.150Z,58.83
2016-11-24T03:39:30.131Z,58.83
2016-11-24T03:40:30.116Z,58.73
2016-11-24T03:41:30.103Z,59.22
2016-11-24T03:42:30.080Z,58.92
2016-11-24T03:43:30.078Z,58.64
2016-11-24T03:44:30.051Z,59.02
2016-11-24T03:45:30.040Z,59.02
2016-11-24T03:46:30.021Z,59.02
2016-11-24T03:47:30.005Z,59.02
2016-11-24T03:48:29.984Z,58.92
2016-11-24T03:49:29.965Z,58.83
2016-11-24T03:50:29.950Z,59.31
2016-11-24T03:51:29.935Z,58.73
2016-11-24T03:52:29.921Z,59.12
2016-11-24T03:53:29.898Z,59.22
2016-11-24T03:54:29.567Z,58.92
2016-11-24T03:55:29.868Z,58.73
2016-11-24T03:56:29.856Z,59.02
2016-11-24T03:57:29.832Z,58.92
2016-11-24T03:58:29.501Z,58.92
2016-11-24T03:59:29.799Z,58.92
2016-11-24T04:00:29.780Z,58.73
2016-11-24T04:01:29.453Z,58.83
2016-11-24T04:02:29.770Z,58.73
2016-11-24T04:03:29.730Z,59.12
2016-11-24T04:04:29.716Z,58.92
2016-11-24T04:05:29.698Z,59.02
2016-11-24T04:06:29.687Z,58.73
2016-11-24T04:07:29.665Z,58.73
2016-11-24T04:08:29.650Z,59.12
2016-11-24T04:09:29.633Z,58.73
2016-11-24T04:10:29.618Z,58.92
2016-11-24T04:11:29.601Z,59.22
2016-11-24T04:12:29.583Z,59.22
2016-11-24T04:13:29.561Z,59.22
2016-11-24T04:14:29.547Z,59.02
2016-11-24T04:15:29.218Z,59.02
2016-11-24T04:16:29.515Z,58.92
2016-11-24T04:17:29.493Z,59.02
2016-11-24T04:18:29.508Z,59.22
2016-11-24T04:19:29.467Z,59.22
2016-11-24T04:20:29.448Z,58.92
2016-11-24T04:21:29.425Z,58.92
2016-11-24T04:22:29.413Z,58.83
2016-11-24T04:23:29.396Z,58.92
2016-11-24T04:24:29.389Z,59.02
2016-11-24T04:25:29.045Z,58.92
2016-11-24T04:26:29.344Z,58.83
2016-11-24T04:27:29.325Z,59.6
2016-11-24T04:28:29.312Z,59.02
2016-11-24T04:29:29.309Z,59.02
2016-11-24T04:30:29.280Z,58.92
2016-11-24T04:31:29.266Z,59.41
2016-11-24T04:32:29.246Z,58.83
2016-11-24T04:33:29.233Z,58.83
2016-11-24T04:34:29.209Z,58.83
2016-11-24T04:35:28.880Z,58.73
2016-11-24T04:36:28.865Z,58.92
2016-11-24T04:37:29.163Z,59.41
2016-11-24T04:38:29.143Z,58.64
2016-11-24T04:39:29.127Z,58.83
2016-11-24T04:40:28.795Z,58.64
2016-11-24T04:41:29.092Z,58.73
2016-11-24T04:42:29.083Z,58.73
2016-11-24T04:43:29.055Z,59.02
2016-11-24T04:44:28.727Z,58.73
2016-11-24T04:45:29.028Z,58.73
2016-11-24T04:46:29.006Z,58.73
2016-11-24T04:47:28.992Z,58.73
2016-11-24T04:48:28.978Z,59.31
2016-11-24T04:49:28.961Z,58.83
2016-11-24T04:50:28.942Z,58.73
2016-11-24T04:51:28.960Z,59.5
2016-11-24T04:52:28.913Z,59.02
2016-11-24T04:53:28.886Z,58.83
2016-11-24T04:54:28.877Z,58.92
2016-11-24T04:55:28.856Z,58.92
2016-11-24T04:56:28.530Z,58.73
2016-11-24T04:57:28.514Z,58.83
2016-11-24T04:58:28.498Z,58.92
2016-11-24T04:59:28.791Z,58.64
2016-11-24T05:00:28.778Z,58.92
2016-11-24T05:01:28.442Z,59.02
2016-11-24T05:02:28.759Z,58.92
2016-11-24T05:03:28.726Z,58.92
2016-11-24T05:04:28.707Z,58.83
2016-11-24T05:05:28.689Z,59.12
2016-11-24T05:06:28.672Z,59.22
2016-11-24T05:07:28.343Z,58.92
2016-11-24T05:08:28.636Z,58.25
2016-11-24T05:09:28.622Z,58.15
2016-11-24T05:10:28.289Z,58.15
2016-11-24T05:11:28.592Z,58.54
2016-11-24T05:12:28.574Z,58.57
2016-11-24T05:13:28.237Z,57.99
2016-11-24T05:14:28.537Z,58.09
2016-11-24T05:15:28.518Z,58.18
2016-11-24T05:16:28.512Z,58.09
2016-11-24T05:17:28.171Z,58.09
2016-11-24T05:18:28.474Z,58.09
2016-11-24T05:19:28.455Z,57.7
2016-11-24T05:20:28.439Z,57.9
2016-11-24T05:21:28.426Z,57.42
2016-11-24T05:22:28.090Z,57.7
2016-11-24T05:23:28.385Z,57.42
2016-11-24T05:24:28.372Z,57.9
2016-11-24T05:25:28.347Z,57.9
2016-11-24T05:26:28.335Z,57.8
2016-11-24T05:27:28.323Z,58.22
2016-11-24T05:28:28.305Z,58.02
2016-11-24T05:29:28.290Z,58.02
2016-11-24T05:30:28.269Z,57.73
2016-11-24T05:31:28.254Z,57.45
2016-11-24T05:32:28.244Z,57.35
2016-11-24T05:33:28.215Z,57.73
2016-11-24T05:34:28.204Z,57.35
2016-11-24T05:35:27.875Z,57.45
2016-11-24T05:36:27.856Z,57.64
2016-11-24T05:37:28.159Z,57.64
2016-11-24T05:38:28.137Z,57.54
2016-11-24T05:39:27.806Z,57.64
2016-11-24T05:40:28.102Z,57.54
2016-11-24T05:41:27.775Z,57.45
2016-11-24T05:42:28.070Z,57.54
2016-11-24T05:43:28.051Z,57.54
2016-11-24T05:44:27.722Z,57.45
2016-11-24T05:45:28.020Z,57.25
2016-11-24T05:46:28.007Z,57.45
2016-11-24T05:47:27.990Z,57.54
2016-11-24T05:48:27.977Z,57.54
2016-11-24T05:49:27.953Z,57.54
2016-11-24T05:50:27.946Z,57.35
2016-11-24T05:51:27.975Z,57.54
2016-11-24T05:52:27.904Z,57.54
2016-11-24T05:53:27.886Z,57.45
2016-11-24T05:54:27.555Z,57.45
2016-11-24T05:55:27.855Z,57.35
2016-11-24T05:56:27.840Z,57.54
2016-11-24T05:57:27.825Z,57.06
2016-11-24T05:58:27.806Z,57.54
2016-11-24T05:59:27.785Z,57.45
2016-11-24T06:00:27.774Z,57.73
2016-11-24T06:01:27.764Z,57.45
2016-11-24T06:02:27.741Z,57.35
2016-11-24T06:03:27.408Z,57.15
2016-11-24T06:04:27.393Z,57.15
2016-11-24T06:05:27.690Z,57.25
2016-11-24T06:06:27.363Z,56.87
2016-11-24T06:07:27.657Z,56.67
2016-11-24T06:08:27.646Z,56.77
2016-11-24T06:09:27.623Z,56.29
2016-11-24T06:10:27.640Z,56.96
2016-11-24T06:11:27.592Z,55.71
2016-11-24T06:12:27.577Z,54.27
2016-11-24T06:13:27.557Z,52.8
2016-11-24T06:14:27.544Z,53.16
2016-11-24T06:15:27.530Z,54.35
2016-11-24T06:16:27.197Z,54.71
2016-11-24T06:17:27.498Z,54.9
2016-11-24T06:18:27.476Z,55.64
2016-11-24T06:19:27.465Z,55.23
2016-11-24T06:20:27.445Z,56.67
2016-11-24T06:21:27.423Z,56
2016-11-24T06:22:27.095Z,56
2016-11-24T06:23:27.392Z,55.42
2016-11-24T06:24:27.385Z,55.42
2016-11-24T06:25:27.366Z,55.9
2016-11-24T06:26:27.343Z,55.04
2016-11-24T06:27:27.327Z,54.75
2016-11-24T06:28:27.310Z,54.75
2016-11-24T06:29:27.291Z,53.91
2016-11-24T06:30:27.278Z,53.94
2016-11-24T06:31:26.947Z,53.49
2016-11-24T06:32:26.926Z,53.42
2016-11-24T06:33:27.226Z,52.87
2016-11-24T06:34:26.893Z,52.48
2016-11-24T06:35:27.198Z,52.7
2016-11-24T06:36:27.178Z,52.8
2016-11-24T06:37:27.160Z,52.7
2016-11-24T06:38:27.137Z,52.61
2016-11-24T06:39:27.123Z,52.51
2016-11-24T06:40:27.108Z,52.44
2016-11-24T06:41:27.095Z,52.63
2016-11-24T06:42:27.080Z,52.34
2016-11-24T06:43:27.060Z,52.83
2016-11-24T06:44:27.035Z,52.54
2016-11-24T06:45:27.026Z,52.83
2016-11-24T06:46:26.693Z,53.02
2016-11-24T06:47:26.988Z,53.31
2016-11-24T06:48:26.968Z,53.02
2016-11-24T06:49:26.960Z,53.4
2016-11-24T06:50:26.942Z,53.4
2016-11-24T06:51:26.923Z,53.59
2016-11-24T06:52:26.590Z,53.72
2016-11-24T06:53:26.896Z,53.53
2016-11-24T06:54:26.877Z,53.43
2016-11-24T06:55:26.858Z,53.14
2016-11-24T06:56:26.868Z,53.31
2016-11-24T06:57:26.826Z,53.53
2016-11-24T06:58:26.806Z,53.72
2016-11-24T06:59:26.791Z,53.62
2016-11-24T07:00:26.828Z,53.62
2016-11-24T07:01:26.759Z,53.81
2016-11-24T07:02:26.745Z,53.72
2016-11-24T07:03:26.724Z,53.91
2016-11-24T07:04:26.715Z,53.81
2016-11-24T07:05:26.694Z,53.91
2016-11-24T07:06:26.677Z,54.1
2016-11-24T07:07:26.663Z,54.49
2016-11-24T07:08:26.643Z,54.49
2016-11-24T07:09:26.623Z,54.39
2016-11-24T07:10:26.610Z,54.39
2016-11-24T07:11:26.279Z,54.1
2016-11-24T07:12:26.262Z,54.2
2016-11-24T07:13:26.566Z,54.1
2016-11-24T07:14:26.542Z,54.49
2016-11-24T07:15:26.528Z,54.49
2016-11-24T07:16:26.195Z,54.1
2016-11-24T07:17:26.494Z,54.39
2016-11-24T07:18:26.165Z,54.58
2016-11-24T07:19:26.460Z,54.49
2016-11-24T07:20:26.455Z,54.39
2016-11-24T07:21:26.429Z,54.49
2016-11-24T07:22:26.421Z,54.68
2016-11-24T07:23:26.399Z,54.49
2016-11-24T07:24:26.382Z,54.78
2016-11-24T07:25:26.368Z,54.85
2016-11-24T07:26:26.036Z,54.56
2016-11-24T07:27:26.332Z,54.87
2016-11-24T07:28:26.327Z,54.97
2016-11-24T07:29:26.305Z,54.97
2016-11-24T07:30:26.282Z,54.68
2016-11-24T07:31:26.280Z,54.97
2016-11-24T07:32:25.938Z,54.68
2016-11-24T07:33:26.235Z,54.85
2016-11-24T07:34:26.222Z,54.85
2016-11-24T07:35:26.206Z,54.75
2016-11-24T07:36:26.216Z,54.68
2016-11-24T07:37:26.178Z,54.97
2016-11-24T07:38:26.155Z,54.49
2016-11-24T07:39:26.152Z,54.65
2016-11-24T07:40:25.809Z,54.75
2016-11-24T07:41:25.794Z,54.65
2016-11-24T07:42:26.091Z,54.65
2016-11-24T07:43:26.077Z,54.56
2016-11-24T07:44:26.064Z,54.56
2016-11-24T07:45:26.043Z,54.85
2016-11-24T07:46:26.030Z,54.87
2016-11-24T07:47:26.008Z,54.58
2016-11-24T07:48:25.996Z,54.49
2016-11-24T07:49:25.980Z,54.68
2016-11-24T07:50:25.961Z,54.49
2016-11-24T07:51:25.628Z,54.68
2016-11-24T07:52:25.619Z,55.07
2016-11-24T07:53:25.910Z,54.87
2016-11-24T07:54:25.899Z,54.87
2016-11-24T07:55:25.888Z,54.68
2016-11-24T07:56:25.867Z,54.58
2016-11-24T07:57:25.855Z,54.78
2016-11-24T07:58:25.833Z,54.68
2016-11-24T07:59:25.818Z,54.68
2016-11-24T08:00:25.829Z,54.87
2016-11-24T08:01:25.784Z,54.78
2016-11-24T08:02:25.770Z,54.68
2016-11-24T08:03:25.754Z,54.87
2016-11-24T08:04:25.740Z,55.07
2016-11-24T08:05:25.723Z,54.97
2016-11-24T08:06:25.705Z,55.07
2016-11-24T08:07:25.691Z,54.78
2016-11-24T08:08:25.359Z,54.87
2016-11-24T08:09:25.659Z,54.68
2016-11-24T08:10:25.643Z,54.49
2016-11-24T08:11:25.626Z,54.87
2016-11-24T08:12:25.615Z,54.97
2016-11-24T08:13:25.593Z,54.68
2016-11-24T08:14:25.582Z,54.58
2016-11-24T08:15:25.563Z,54.87
2016-11-24T08:16:25.544Z,54.58
2016-11-24T08:17:25.525Z,54.68
2016-11-24T08:18:25.515Z,54.97
2016-11-24T08:19:25.499Z,54.39
2016-11-24T08:20:25.492Z,54.87
2016-11-24T08:21:25.155Z,55.07
2016-11-24T08:22:25.451Z,54.68
2016-11-24T08:23:25.432Z,54.97
2016-11-24T08:24:25.418Z,54.97
2016-11-24T08:25:25.407Z,54.58
2016-11-24T08:26:25.382Z,54.58
2016-11-24T08:27:25.054Z,54.78
2016-11-24T08:28:25.354Z,55.07
2016-11-24T08:29:25.335Z,54.68
2016-11-24T08:30:25.321Z,54.49
2016-11-24T08:31:25.305Z,54.58
2016-11-24T08:32:25.290Z,54.97
2016-11-24T08:33:25.267Z,54.39
2016-11-24T08:34:25.260Z,54.78
2016-11-24T08:35:25.241Z,54.87
2016-11-24T08:36:25.226Z,54.78
2016-11-24T08:37:25.209Z,54.78
2016-11-24T08:38:25.198Z,54.52
2016-11-24T08:39:25.174Z,54.87
2016-11-24T08:40:25.160Z,54.68
2016-11-24T08:41:25.143Z,54.58
2016-11-24T08:42:25.125Z,54.68
2016-11-24T08:43:25.113Z,54.58
2016-11-24T08:44:25.094Z,54.68
2016-11-24T08:45:25.082Z,54.49
2016-11-24T08:46:25.059Z,54.68
2016-11-24T08:47:24.734Z,54.87
2016-11-24T08:48:25.034Z,54.49
2016-11-24T08:49:25.020Z,54.39
2016-11-24T08:50:25.003Z,54.87
2016-11-24T08:51:24.981Z,54.87
2016-11-24T08:52:24.970Z,54.68
2016-11-24T08:53:24.959Z,54.87
2016-11-24T08:54:24.944Z,54.68
2016-11-24T08:55:24.929Z,54.68
2016-11-24T08:56:24.906Z,54.87
2016-11-24T08:57:24.580Z,54.97
2016-11-24T08:58:24.875Z,54.87
2016-11-24T08:59:24.854Z,54.87
2016-11-24T09:00:24.840Z,54.68
2016-11-24T09:01:24.827Z,54.97
2016-11-24T09:02:24.814Z,54.78
2016-11-24T09:03:24.797Z,54.49
2016-11-24T09:04:24.780Z,54.78
2016-11-24T09:05:24.758Z,54.68
2016-11-24T09:06:24.741Z,54.58
2016-11-24T09:07:24.730Z,54.8
2016-11-24T09:08:24.717Z,54.52
2016-11-24T09:09:24.385Z,54.8
2016-11-24T09:10:24.679Z,54.39
2016-11-24T09:11:24.345Z,54.52
2016-11-24T09:12:24.645Z,54.32
2016-11-24T09:13:24.635Z,54.3
2016-11-24T09:14:24.299Z,54.58
2016-11-24T09:15:24.604Z,54.3
2016-11-24T09:16:24.579Z,54.3
2016-11-24T09:17:24.251Z,54.52
2016-11-24T09:18:24.550Z,54.58
2016-11-24T09:19:24.539Z,54.61
2016-11-24T09:20:24.523Z,54.39
2016-11-24T09:21:24.510Z,54.52
2016-11-24T09:22:24.483Z,54.61
2016-11-24T09:23:24.474Z,54.52
2016-11-24T09:24:24.455Z,54.52
2016-11-24T09:25:24.449Z,54.3
2016-11-24T09:26:24.422Z,54.52
2016-11-24T09:27:24.404Z,54.52
2016-11-24T09:28:24.393Z,54.61
2016-11-24T09:29:24.376Z,54.52
2016-11-24T09:30:24.359Z,54.58
2016-11-24T09:31:24.335Z,54.58
2016-11-24T09:32:24.324Z,54.39
2016-11-24T09:33:24.315Z,54.42
2016-11-24T09:34:24.296Z,54.3
2016-11-24T09:35:23.971Z,54.52
2016-11-24T09:36:24.259Z,54.2
2016-11-24T09:37:24.250Z,54.39
2016-11-24T09:38:24.233Z,54.03
2016-11-24T09:39:24.222Z,54.39
2016-11-24T09:40:24.204Z,53.94
2016-11-24T09:41:24.183Z,53.94
2016-11-24T09:42:24.166Z,54.42
2016-11-24T09:43:24.149Z,54.03
2016-11-24T09:44:24.131Z,54.42
2016-11-24T09:45:24.124Z,54.52
2016-11-24T09:46:24.105Z,54.32
2016-11-24T09:47:24.090Z,54.52
2016-11-24T09:48:24.074Z,54.42
2016-11-24T09:49:24.055Z,54.42
2016-11-24T09:50:24.039Z,54.42
2016-11-24T09:51:24.027Z,54.52
2016-11-24T09:52:23.694Z,54.42
2016-11-24T09:53:24.008Z,54.42
2016-11-24T09:54:23.980Z,54.42
2016-11-24T09:55:23.960Z,54.52
2016-11-24T09:56:23.946Z,54.32
2016-11-24T09:57:23.928Z,54.42
2016-11-24T09:58:23.930Z,54.32
2016-11-24T09:59:23.897Z,54.22
2016-11-24T10:00:23.882Z,54.32
2016-11-24T10:01:23.865Z,53.91
2016-11-24T10:02:23.855Z,54.39
2016-11-24T10:03:23.832Z,54.42
2016-11-24T10:04:23.833Z,54.42
2016-11-24T10:05:23.797Z,54
2016-11-24T10:06:23.781Z,54.42
2016-11-24T10:07:23.447Z,54.39
2016-11-24T10:08:23.752Z,54.22
2016-11-24T10:09:23.737Z,54.42
2016-11-24T10:10:23.720Z,54.42
2016-11-24T10:11:23.702Z,54.39
2016-11-24T10:12:23.373Z,54.39
2016-11-24T10:13:23.675Z,54.3
2016-11-24T10:14:23.654Z,54.42
2016-11-24T10:15:23.323Z,54.39
2016-11-24T10:16:23.302Z,54.2
2016-11-24T10:17:23.608Z,54.13
2016-11-24T10:18:23.589Z,54.42
2016-11-24T10:19:23.572Z,54.42
2016-11-24T10:20:23.246Z,54.42
2016-11-24T10:21:23.540Z,54.42
2016-11-24T10:22:23.529Z,54.32
2016-11-24T10:23:23.511Z,54.42
2016-11-24T10:24:23.496Z,54.42
2016-11-24T10:25:23.168Z,54.42
2016-11-24T10:26:23.467Z,54.61
2016-11-24T10:27:23.446Z,54.03
2016-11-24T10:28:23.433Z,54.13
2016-11-24T10:29:23.412Z,54.32
2016-11-24T10:30:23.401Z,54.61
2016-11-24T10:31:23.377Z,54.52
2016-11-24T10:32:23.366Z,54.42
2016-11-24T10:33:23.353Z,54.52
2016-11-24T10:34:23.016Z,54.52
2016-11-24T10:35:23.321Z,54.52
2016-11-24T10:36:23.393Z,54.42
2016-11-24T10:37:23.314Z,54.61
2016-11-24T10:38:23.271Z,54.42
2016-11-24T10:39:23.256Z,54.42
2016-11-24T10:40:22.928Z,54.42
2016-11-24T10:41:22.909Z,54.32
2016-11-24T10:42:23.208Z,54.42
2016-11-24T10:43:23.193Z,54.13
2016-11-24T10:44:23.173Z,53.55
2016-11-24T10:45:22.844Z,53.94
2016-11-24T10:46:23.144Z,53.65
2016-11-24T10:47:22.815Z,53.55
2016-11-24T10:48:23.108Z,53.84
2016-11-24T10:49:23.093Z,53.74
2016-11-24T10:50:23.081Z,53.45
2016-11-24T10:51:23.069Z,53.45
2016-11-24T10:52:23.045Z,53.65
2016-11-24T10:53:22.719Z,53.74
2016-11-24T10:54:23.016Z,53.94
2016-11-24T10:55:23.000Z,53.84
2016-11-24T10:56:22.982Z,53.55
2016-11-24T10:57:22.971Z,53.84
2016-11-24T10:58:22.637Z,53.74
2016-11-24T10:59:22.933Z,53.65
2016-11-24T11:00:22.914Z,53.94
2016-11-24T11:01:22.901Z,53.74
2016-11-24T11:02:22.890Z,53.84
2016-11-24T11:03:22.878Z,53.45
2016-11-24T11:04:22.858Z,53.84
2016-11-24T11:05:22.840Z,53.94
2016-11-24T11:06:22.820Z,53.65
2016-11-24T11:07:22.810Z,53.65
2016-11-24T11:08:22.790Z,53.65
2016-11-24T11:09:22.777Z,53.55
2016-11-24T11:10:22.761Z,53.74
2016-11-24T11:11:22.745Z,53.65
2016-11-24T11:12:22.729Z,53.55
2016-11-24T11:13:22.720Z,53.55
2016-11-24T11:14:22.695Z,53.74
2016-11-24T11:15:22.690Z,53.65
2016-11-24T11:16:22.669Z,53.65
2016-11-24T11:17:22.691Z,53.74
2016-11-24T11:18:22.636Z,53.74
2016-11-24T11:19:22.621Z,53.55
2016-11-24T11:20:22.595Z,53.45
2016-11-24T11:21:22.588Z,53.74
2016-11-24T11:22:22.567Z,53.74
2016-11-24T11:23:22.550Z,53.74
2016-11-24T11:24:22.541Z,53.45
2016-11-24T11:25:22.525Z,53.43
2016-11-24T11:26:22.190Z,53.55
2016-11-24T11:27:22.174Z,53.65
2016-11-24T11:28:22.477Z,53.55
2016-11-24T11:29:22.460Z,53.65
2016-11-24T11:30:22.445Z,53.55
2016-11-24T11:31:22.112Z,53.17
2016-11-24T11:32:22.413Z,52.87
2016-11-24T11:33:22.076Z,52.87
2016-11-24T11:34:22.378Z,53.07
2016-11-24T11:35:22.051Z,52.97
2016-11-24T11:36:22.344Z,52.87
2016-11-24T11:37:22.333Z,53.27
2016-11-24T11:38:22.323Z,52.87
2016-11-24T11:39:22.300Z,52.87
2016-11-24T11:40:21.973Z,52.97
2016-11-24T11:41:23.397Z,52.87
2016-11-24T11:42:21.939Z,52.97
2016-11-24T11:43:21.919Z,52.78
2016-11-24T11:44:21.904Z,52.78
2016-11-24T11:45:22.204Z,52.97
2016-11-24T11:46:21.871Z,52.97
2016-11-24T11:47:22.174Z,52.97
2016-11-24T11:48:22.157Z,53.27
2016-11-24T11:49:22.141Z,53.07
2016-11-24T11:50:22.149Z,52.97
2016-11-24T11:51:21.792Z,53.07
2016-11-24T11:52:22.103Z,53.27
2016-11-24T11:53:22.077Z,53.17
2016-11-24T11:54:22.060Z,52.97
2016-11-24T11:55:22.045Z,53.07
2016-11-24T11:56:22.034Z,53.07
2016-11-24T11:57:22.015Z,53.07
2016-11-24T11:58:21.688Z,53.17
2016-11-24T11:59:21.984Z,52.97
2016-11-24T12:00:21.967Z,52.97
2016-11-24T12:01:21.955Z,52.78
2016-11-24T12:02:21.935Z,52.87
2016-11-24T12:03:21.919Z,52.97
2016-11-24T12:04:21.586Z,53.17
2016-11-24T12:05:21.571Z,52.97
2016-11-24T12:06:21.872Z,52.78
2016-11-24T12:07:21.857Z,53.27
2016-11-24T12:08:21.838Z,53.27
2016-11-24T12:09:21.824Z,52.87
2016-11-24T12:10:21.819Z,53.55
2016-11-24T12:11:21.794Z,53.07
2016-11-24T12:12:21.774Z,53.55
2016-11-24T12:13:21.440Z,53.65
2016-11-24T12:14:21.741Z,53.55
2016-11-24T12:15:21.732Z,53.55
2016-11-24T12:16:21.716Z,53.55
2016-11-24T12:17:21.699Z,53.55
2016-11-24T12:18:21.680Z,53.07
2016-11-24T12:19:21.671Z,52.49
2016-11-24T12:20:21.652Z,52.78
2016-11-24T12:21:21.634Z,52.4
2016-11-24T12:22:21.617Z,52.87
2016-11-24T12:23:21.606Z,52.87
2016-11-24T12:24:21.588Z,52.78
2016-11-24T12:25:21.575Z,53.07
2016-11-24T12:26:21.553Z,53.07
2016-11-24T12:27:21.535Z,53.07
2016-11-24T12:28:21.522Z,53.27
2016-11-24T12:29:21.507Z,53.36
2016-11-24T12:30:21.488Z,52.97
2016-11-24T12:31:21.159Z,52.85
2016-11-24T12:32:21.145Z,52.87
2016-11-24T12:33:21.449Z,52.97
2016-11-24T12:34:21.431Z,52.87
2016-11-24T12:35:21.408Z,52.97
2016-11-24T12:36:21.397Z,52.87
2016-11-24T12:37:21.382Z,52.97
2016-11-24T12:38:21.051Z,53.17
2016-11-24T12:39:21.036Z,52.87
2016-11-24T12:40:21.338Z,53.07
2016-11-24T12:41:21.323Z,52.87
2016-11-24T12:42:21.300Z,53.07
2016-11-24T12:43:21.283Z,53.07
2016-11-24T12:44:21.278Z,52.97
2016-11-24T12:45:21.256Z,53.17
2016-11-24T12:46:20.924Z,52.4
2016-11-24T12:47:21.223Z,52.49
2016-11-24T12:48:21.199Z,52.69
2016-11-24T12:49:21.193Z,52.59
2016-11-24T12:50:21.174Z,52.59
2016-11-24T12:51:21.165Z,52.69
2016-11-24T12:52:21.147Z,52.59
2016-11-24T12:53:21.128Z,52.69
2016-11-24T12:54:21.109Z,52.69